Luis Lopez, New Mexico
Current Conditions -  °F | °C
As of 12:55 AM on Friday 24 Oct 2014 (Local Time) from KONM Reporting Station
Clear Clear  
Wind Chill: 11°   Ceiling: Unl
Heat Index: 11°   Visibility: 10mi
Dew Point:   Wind: 6mph
Humidity: 71%   Direction: 280°W
Pressure: 30.25"   Gusts: NA
Location:  33.8946°N, 106.565°W
Report Text: KONM 240655Z AUTO 28005KT 10SM CLR 12/07 A3025 RMK AO2 T01150065
Loading
Personal Weather Stations






























Interactive Weather Map
Tropical Storm Tracking
New forecast layout! Learn more

10-Day Weather Forecast

Advertisements
Track Severe Weather on mobile